Springdale, WA

9:07 AM PDT on May 22, 2015 (GMT -0700)
MesoWest | | Change Station
CLOSE
Current Station
Personal Weather Station
Location: Clayton, WA
Elevation: 2198 ft
Nearby Weather Stations

Elev 2198 ft 47.98 °N, 117.56 °W | Updated 52 minutes ago

Partly Cloudy
Partly Cloudy
68 °F
Feels Like 68 °F
N
1
Wind Variable Wind from North
Gusts 7.0 mph

Today
High -- | Low -- °F
--% Chance of Precip.
Yesterday
High -- | Low -- °F
Precip. -- in
5:04 AM 8:31 PM
Waxing Crescent, 22% visible
Pressure 29.86 in
Visibility 10.0 miles
Clouds Clear
Dew Point 52 °F
Humidity 57%
Rainfall in
Snow Depth Not available.
UV 4 out of 12
Pollen 8.50 out of 12
Air Quality Not available.
Flu Activity Sporadic
METAR KDEW 221553Z AUTO 00000KT 10SM CLR 19/10 A2988 RMK AO2 SLP111 T01940100

More Conditions Fewer Conditions

Pressure 29.86 in
Visibility 10.0 miles
Clouds Clear
Dew Point 52 °F
Humidity 57%
Rainfall in
Snow Depth Not available.
UV 4 out of 12
Pollen 8.50 out of 12
Air Quality Not available.
Flu Activity Sporadic
METAR KDEW 221553Z AUTO 00000KT 10SM CLR 19/10 A2988 RMK AO2 SLP111 T01940100

More Conditions Fewer Conditions

10-Day Weather Forecast

Almanac

Astronomy

May. 22, 2015 Rise Set
Actual Time
Civil Twilight
Nautical Twilight
Astronomical Twilight
Moon
Length of Visible Light
Length of Day
Tomorrow will be .
, % of the Moon is Illuminated

Today's Extremes

State Highs State Lows

Community

WunderPhotos

Upload Photos

1,823,251 photos uploaded!

WunderBlogs® & News

Nearby

Air Quality

  Air Quality AQ Index Pollutant
Not available.

Snow Depth

Station Depth Elevation

Earthquake Activity

City Distance Mag. Time & Date
Minimum magnitude displayed is 2.5.

Coastal Water Temperatures

Place Temperature

Stations

Nearby Weather Stations

Station Location Temp. Windchill Dew Point Humidity Wind Precip. Elev Updated Type